sensor_id;sensor_type;location;lat;lon;timestamp;temperature;humidity
11700;DHT22;5906;51.660;6.674;2022-10-22T00:00:00;13.20;99.90
11700;DHT22;5906;51.660;6.674;2022-10-22T00:02:27;13.20;99.90
11700;DHT22;5906;51.660;6.674;2022-10-22T00:04:53;13.20;99.90
11700;DHT22;5906;51.660;6.674;2022-10-22T00:07:23;13.20;99.90
11700;DHT22;5906;51.660;6.674;2022-10-22T00:09:50;13.30;99.90
11700;DHT22;5906;51.660;6.674;2022-10-22T00:12:17;13.30;99.90
11700;DHT22;5906;51.660;6.674;2022-10-22T00:14:44;13.20;99.90
11700;DHT22;5906;51.660;6.674;2022-10-22T00:17:11;13.20;99.90
11700;DHT22;5906;51.660;6.674;2022-10-22T00:19:39;13.20;99.90
11700;DHT22;5906;51.660;6.674;2022-10-22T00:22:07;13.20;99.90
11700;DHT22;5906;51.660;6.674;2022-10-22T00:24:36;13.10;99.90
11700;DHT22;5906;51.660;6.674;2022-10-22T00:27:04;13.10;99.90
11700;DHT22;5906;51.660;6.674;2022-10-22T00:29:31;13.10;99.90
11700;DHT22;5906;51.660;6.674;2022-10-22T00:31:58;13.00;99.90
11700;DHT22;5906;51.660;6.674;2022-10-22T00:34:25;12.90;99.90
11700;DHT22;5906;51.660;6.674;2022-10-22T00:36:52;12.90;99.90
11700;DHT22;5906;51.660;6.674;2022-10-22T00:39:21;12.80;99.90
11700;DHT22;5906;51.660;6.674;2022-10-22T00:41:50;12.80;99.90
11700;DHT22;5906;51.660;6.674;2022-10-22T00:47:22;13.00;99.90
11700;DHT22;5906;51.660;6.674;2022-10-22T00:49:51;13.00;99.90
11700;DHT22;5906;51.660;6.674;2022-10-22T00:52:19;13.00;99.90
11700;DHT22;5906;51.660;6.674;2022-10-22T00:54:46;13.00;99.90
11700;DHT22;5906;51.660;6.674;2022-10-22T00:57:14;13.00;99.90
11700;DHT22;5906;51.660;6.674;2022-10-22T00:59:41;13.10;99.90
11700;DHT22;5906;51.660;6.674;2022-10-22T01:02:08;13.10;99.90
11700;DHT22;5906;51.660;6.674;2022-10-22T01:04:35;13.10;99.90
11700;DHT22;5906;51.660;6.674;2022-10-22T01:07:03;13.00;99.90
11700;DHT22;5906;51.660;6.674;2022-10-22T01:09:41;12.90;99.90
11700;DHT22;5906;51.660;6.674;2022-10-22T01:12:33;12.90;99.90
11700;DHT22;5906;51.660;6.674;2022-10-22T01:15:23;12.80;99.90
11700;DHT22;5906;51.660;6.674;2022-10-22T01:29:06;12.90;99.90
11700;DHT22;5906;51.660;6.674;2022-10-22T01:31:39;12.90;99.90
11700;DHT22;5906;51.660;6.674;2022-10-22T01:34:12;12.90;99.90
11700;DHT22;5906;51.660;6.674;2022-10-22T01:36:41;12.90;99.90
11700;DHT22;5906;51.660;6.674;2022-10-22T01:39:09;12.90;99.90
11700;DHT22;5906;51.660;6.674;2022-10-22T01:41:39;12.90;99.90
11700;DHT22;5906;51.660;6.674;2022-10-22T01:44:28;13.00;99.90
11700;DHT22;5906;51.660;6.674;2022-10-22T01:47:38;13.00;99.90
11700;DHT22;5906;51.660;6.674;2022-10-22T01:57:05;12.90;99.90
11700;DHT22;5906;51.660;6.674;2022-10-22T02:02:47;12.70;99.90
11700;DHT22;5906;51.660;6.674;2022-10-22T02:05:37;12.70;99.90
11700;DHT22;5906;51.660;6.674;2022-10-22T02:08:11;12.60;99.90
11700;DHT22;5906;51.660;6.674;2022-10-22T02:10:41;12.60;99.90
11700;DHT22;5906;51.660;6.674;2022-10-22T02:13:57;12.60;99.90
11700;DHT22;5906;51.660;6.674;2022-10-22T02:16:07;12.50;99.90
11700;DHT22;5906;51.660;6.674;2022-10-22T02:18:37;12.50;99.90
11700;DHT22;5906;51.660;6.674;2022-10-22T02:21:06;12.50;99.90
11700;DHT22;5906;51.660;6.674;2022-10-22T02:23:34;12.40;99.90
11700;DHT22;5906;51.660;6.674;2022-10-22T02:26:13;12.30;99.90
11700;DHT22;5906;51.660;6.674;2022-10-22T02:28:49;12.30;99.90
11700;DHT22;5906;51.660;6.674;2022-10-22T02:31:23;12.30;99.90
11700;DHT22;5906;51.660;6.674;2022-10-22T02:33:54;12.30;99.90
11700;DHT22;5906;51.660;6.674;2022-10-22T02:36:23;12.20;99.90
11700;DHT22;5906;51.660;6.674;2022-10-22T02:38:50;12.20;99.90
11700;DHT22;5906;51.660;6.674;2022-10-22T02:41:18;12.20;99.90
11700;DHT22;5906;51.660;6.674;2022-10-22T02:43:52;12.20;99.90
11700;DHT22;5906;51.660;6.674;2022-10-22T02:46:19;12.20;99.90
11700;DHT22;5906;51.660;6.674;2022-10-22T02:48:46;12.20;99.90
11700;DHT22;5906;51.660;6.674;2022-10-22T02:51:13;12.20;99.90
11700;DHT22;5906;51.660;6.674;2022-10-22T02:53:40;12.10;99.90
11700;DHT22;5906;51.660;6.674;2022-10-22T02:56:07;12.10;99.90
11700;DHT22;5906;51.660;6.674;2022-10-22T02:58:34;12.10;99.90
11700;DHT22;5906;51.660;6.674;2022-10-22T03:01:01;12.00;99.90
11700;DHT22;5906;51.660;6.674;2022-10-22T03:03:28;12.00;99.90
11700;DHT22;5906;51.660;6.674;2022-10-22T03:05:55;11.90;99.90
11700;DHT22;5906;51.660;6.674;2022-10-22T03:08:21;11.90;99.90
11700;DHT22;5906;51.660;6.674;2022-10-22T03:10:48;12.00;99.90
11700;DHT22;5906;51.660;6.674;2022-10-22T03:13:15;11.90;99.90
11700;DHT22;5906;51.660;6.674;2022-10-22T03:15:42;11.90;99.90
11700;DHT22;5906;51.660;6.674;2022-10-22T03:18:09;11.90;99.90
11700;DHT22;5906;51.660;6.674;2022-10-22T03:20:36;11.90;99.90
11700;DHT22;5906;51.660;6.674;2022-10-22T03:23:03;11.80;99.90
11700;DHT22;5906;51.660;6.674;2022-10-22T03:25:30;11.80;99.90
11700;DHT22;5906;51.660;6.674;2022-10-22T03:28:03;11.80;99.90
11700;DHT22;5906;51.660;6.674;2022-10-22T03:30:30;11.70;99.90
11700;DHT22;5906;51.660;6.674;2022-10-22T03:32:57;11.70;99.90
11700;DHT22;5906;51.660;6.674;2022-10-22T03:35:25;11.60;99.90
11700;DHT22;5906;51.660;6.674;2022-10-22T03:37:52;11.60;99.90
11700;DHT22;5906;51.660;6.674;2022-10-22T03:40:19;11.60;99.90
11700;DHT22;5906;51.660;6.674;2022-10-22T03:42:46;11.60;99.90
11700;DHT22;5906;51.660;6.674;2022-10-22T03:45:13;11.60;99.90
11700;DHT22;5906;51.660;6.674;2022-10-22T03:47:40;11.60;99.90
11700;DHT22;5906;51.660;6.674;2022-10-22T03:50:07;11.60;99.90
11700;DHT22;5906;51.660;6.674;2022-10-22T03:52:37;11.60;99.90
11700;DHT22;5906;51.660;6.674;2022-10-22T03:55:07;11.50;99.90
11700;DHT22;5906;51.660;6.674;2022-10-22T03:57:34;11.40;99.90
11700;DHT22;5906;51.660;6.674;2022-10-22T04:00:01;11.40;99.90
11700;DHT22;5906;51.660;6.674;2022-10-22T04:02:27;11.40;99.90
11700;DHT22;5906;51.660;6.674;2022-10-22T04:04:54;11.30;99.90
11700;DHT22;5906;51.660;6.674;2022-10-22T04:07:21;11.30;99.90
11700;DHT22;5906;51.660;6.674;2022-10-22T04:09:48;11.30;99.90
11700;DHT22;5906;51.660;6.674;2022-10-22T04:12:15;11.30;99.90
11700;DHT22;5906;51.660;6.674;2022-10-22T04:14:42;11.30;99.90
11700;DHT22;5906;51.660;6.674;2022-10-22T04:17:09;11.30;99.90
11700;DHT22;5906;51.660;6.674;2022-10-22T04:19:36;11.30;99.90
11700;DHT22;5906;51.660;6.674;2022-10-22T04:22:02;11.20;99.90
11700;DHT22;5906;51.660;6.674;2022-10-22T04:24:30;11.20;99.90
11700;DHT22;5906;51.660;6.674;2022-10-22T04:26:58;11.20;99.90
11700;DHT22;5906;51.660;6.674;2022-10-22T04:29:25;11.20;99.90
11700;DHT22;5906;51.660;6.674;2022-10-22T04:31:52;11.30;99.90
11700;DHT22;5906;51.660;6.674;2022-10-22T04:34:19;11.30;99.90
11700;DHT22;5906;51.660;6.674;2022-10-22T04:36:46;11.30;99.90
11700;DHT22;5906;51.660;6.674;2022-10-22T04:39:13;11.30;99.90
11700;DHT22;5906;51.660;6.674;2022-10-22T04:41:40;11.30;99.90
11700;DHT22;5906;51.660;6.674;2022-10-22T04:44:07;11.40;99.90
11700;DHT22;5906;51.660;6.674;2022-10-22T04:46:41;11.40;99.90
11700;DHT22;5906;51.660;6.674;2022-10-22T04:49:08;11.70;99.90
11700;DHT22;5906;51.660;6.674;2022-10-22T04:51:34;11.90;99.90
11700;DHT22;5906;51.660;6.674;2022-10-22T04:54:01;12.20;99.90
11700;DHT22;5906;51.660;6.674;2022-10-22T04:56:29;12.40;99.90
11700;DHT22;5906;51.660;6.674;2022-10-22T04:59:01;12.50;99.90
11700;DHT22;5906;51.660;6.674;2022-10-22T05:01:34;12.60;99.90
11700;DHT22;5906;51.660;6.674;2022-10-22T05:04:11;12.60;99.90
11700;DHT22;5906;51.660;6.674;2022-10-22T05:06:38;12.70;99.90
11700;DHT22;5906;51.660;6.674;2022-10-22T05:09:07;12.80;99.90
11700;DHT22;5906;51.660;6.674;2022-10-22T05:11:37;12.80;99.90
11700;DHT22;5906;51.660;6.674;2022-10-22T05:14:07;12.80;99.90
11700;DHT22;5906;51.660;6.674;2022-10-22T05:16:35;12.90;99.90
11700;DHT22;5906;51.660;6.674;2022-10-22T05:19:04;12.90;99.90
11700;DHT22;5906;51.660;6.674;2022-10-22T05:21:31;13.00;99.90
11700;DHT22;5906;51.660;6.674;2022-10-22T05:23:59;13.10;99.90
11700;DHT22;5906;51.660;6.674;2022-10-22T05:26:27;13.10;99.90
11700;DHT22;5906;51.660;6.674;2022-10-22T05:28:54;13.10;99.90
11700;DHT22;5906;51.660;6.674;2022-10-22T05:31:21;13.10;99.90
11700;DHT22;5906;51.660;6.674;2022-10-22T05:33:48;13.10;99.90
11700;DHT22;5906;51.660;6.674;2022-10-22T05:36:18;13.10;99.90
11700;DHT22;5906;51.660;6.674;2022-10-22T05:38:46;13.20;99.90
11700;DHT22;5906;51.660;6.674;2022-10-22T05:41:18;13.10;99.90
11700;DHT22;5906;51.660;6.674;2022-10-22T05:43:46;13.10;99.90
11700;DHT22;5906;51.660;6.674;2022-10-22T05:46:15;13.20;99.90
11700;DHT22;5906;51.660;6.674;2022-10-22T05:48:50;13.10;99.90
11700;DHT22;5906;51.660;6.674;2022-10-22T05:51:17;13.20;99.90
11700;DHT22;5906;51.660;6.674;2022-10-22T05:53:45;13.20;99.90
11700;DHT22;5906;51.660;6.674;2022-10-22T05:56:14;13.20;99.90
11700;DHT22;5906;51.660;6.674;2022-10-22T05:58:42;13.30;99.90
11700;DHT22;5906;51.660;6.674;2022-10-22T06:01:19;13.20;99.90
11700;DHT22;5906;51.660;6.674;2022-10-22T06:03:46;13.20;99.90
11700;DHT22;5906;51.660;6.674;2022-10-22T06:06:18;13.20;99.90
11700;DHT22;5906;51.660;6.674;2022-10-22T06:08:47;13.30;99.90
11700;DHT22;5906;51.660;6.674;2022-10-22T06:11:16;13.30;99.90
11700;DHT22;5906;51.660;6.674;2022-10-22T06:13:44;13.30;99.90
11700;DHT22;5906;51.660;6.674;2022-10-22T06:16:11;13.20;99.90
11700;DHT22;5906;51.660;6.674;2022-10-22T06:18:38;13.20;99.90
11700;DHT22;5906;51.660;6.674;2022-10-22T06:21:10;13.20;99.90
11700;DHT22;5906;51.660;6.674;2022-10-22T06:23:38;13.20;99.90
11700;DHT22;5906;51.660;6.674;2022-10-22T06:26:06;13.20;99.90
11700;DHT22;5906;51.660;6.674;2022-10-22T06:28:33;13.20;99.90
11700;DHT22;5906;51.660;6.674;2022-10-22T06:31:02;13.30;99.90
11700;DHT22;5906;51.660;6.674;2022-10-22T06:33:31;13.30;99.90
11700;DHT22;5906;51.660;6.674;2022-10-22T06:36:06;13.20;99.90
11700;DHT22;5906;51.660;6.674;2022-10-22T06:38:33;13.30;99.90
11700;DHT22;5906;51.660;6.674;2022-10-22T06:41:05;13.30;99.90
11700;DHT22;5906;51.660;6.674;2022-10-22T06:43:32;13.30;99.90
11700;DHT22;5906;51.660;6.674;2022-10-22T06:46:04;13.40;99.90
11700;DHT22;5906;51.660;6.674;2022-10-22T06:48:31;13.40;99.90
11700;DHT22;5906;51.660;6.674;2022-10-22T06:51:03;13.50;99.90
11700;DHT22;5906;51.660;6.674;2022-10-22T06:53:30;13.50;99.90
11700;DHT22;5906;51.660;6.674;2022-10-22T06:55:57;13.60;99.90
11700;DHT22;5906;51.660;6.674;2022-10-22T06:58:24;13.60;99.90
11700;DHT22;5906;51.660;6.674;2022-10-22T07:01:00;13.70;99.90
11700;DHT22;5906;51.660;6.674;2022-10-22T07:03:29;13.70;99.90
11700;DHT22;5906;51.660;6.674;2022-10-22T07:06:01;13.80;99.90
11700;DHT22;5906;51.660;6.674;2022-10-22T07:08:28;13.90;99.90
11700;DHT22;5906;51.660;6.674;2022-10-22T07:10:55;13.90;99.90
11700;DHT22;5906;51.660;6.674;2022-10-22T07:13:23;14.00;99.90
11700;DHT22;5906;51.660;6.674;2022-10-22T07:15:53;14.10;99.90
11700;DHT22;5906;51.660;6.674;2022-10-22T07:18:21;14.20;99.90
11700;DHT22;5906;51.660;6.674;2022-10-22T07:20:48;14.30;99.90
11700;DHT22;5906;51.660;6.674;2022-10-22T07:23:15;14.40;99.90
11700;DHT22;5906;51.660;6.674;2022-10-22T07:25:42;14.40;99.90
11700;DHT22;5906;51.660;6.674;2022-10-22T07:28:10;14.40;99.90
11700;DHT22;5906;51.660;6.674;2022-10-22T07:30:37;14.50;99.90
11700;DHT22;5906;51.660;6.674;2022-10-22T07:33:04;14.50;99.90
11700;DHT22;5906;51.660;6.674;2022-10-22T07:35:31;14.40;99.90
11700;DHT22;5906;51.660;6.674;2022-10-22T07:38:00;14.50;99.90
11700;DHT22;5906;51.660;6.674;2022-10-22T07:40:26;14.50;99.90
11700;DHT22;5906;51.660;6.674;2022-10-22T07:42:53;14.50;99.90
11700;DHT22;5906;51.660;6.674;2022-10-22T07:45:20;14.40;99.90
11700;DHT22;5906;51.660;6.674;2022-10-22T07:47:47;14.40;99.90
11700;DHT22;5906;51.660;6.674;2022-10-22T07:50:14;14.40;99.90
11700;DHT22;5906;51.660;6.674;2022-10-22T07:52:42;14.40;99.90
11700;DHT22;5906;51.660;6.674;2022-10-22T07:55:09;14.50;99.90
11700;DHT22;5906;51.660;6.674;2022-10-22T07:57:36;14.50;99.90
11700;DHT22;5906;51.660;6.674;2022-10-22T08:00:04;14.60;99.90
11700;DHT22;5906;51.660;6.674;2022-10-22T08:02:31;14.70;99.90
11700;DHT22;5906;51.660;6.674;2022-10-22T08:04:58;14.70;99.90
11700;DHT22;5906;51.660;6.674;2022-10-22T08:07:25;14.80;99.90
11700;DHT22;5906;51.660;6.674;2022-10-22T08:09:57;14.90;99.90
11700;DHT22;5906;51.660;6.674;2022-10-22T08:12:23;15.00;99.90
11700;DHT22;5906;51.660;6.674;2022-10-22T08:14:50;15.20;99.90
11700;DHT22;5906;51.660;6.674;2022-10-22T08:17:17;15.30;99.90
11700;DHT22;5906;51.660;6.674;2022-10-22T08:19:44;15.40;99.90
11700;DHT22;5906;51.660;6.674;2022-10-22T08:22:11;15.50;99.90
11700;DHT22;5906;51.660;6.674;2022-10-22T08:24:37;15.50;99.90
11700;DHT22;5906;51.660;6.674;2022-10-22T08:27:04;15.50;99.90
11700;DHT22;5906;51.660;6.674;2022-10-22T08:29:31;15.60;99.90
11700;DHT22;5906;51.660;6.674;2022-10-22T08:31:57;15.60;99.90
11700;DHT22;5906;51.660;6.674;2022-10-22T08:34:24;15.70;99.90
11700;DHT22;5906;51.660;6.674;2022-10-22T08:36:51;15.70;99.90
11700;DHT22;5906;51.660;6.674;2022-10-22T08:39:18;15.80;99.90
11700;DHT22;5906;51.660;6.674;2022-10-22T08:50:22;15.80;99.90
11700;DHT22;5906;51.660;6.674;2022-10-22T08:52:52;15.80;99.90
11700;DHT22;5906;51.660;6.674;2022-10-22T08:55:23;15.90;99.90
11700;DHT22;5906;51.660;6.674;2022-10-22T08:57:57;15.90;99.90
11700;DHT22;5906;51.660;6.674;2022-10-22T09:00:30;15.90;99.90
11700;DHT22;5906;51.660;6.674;2022-10-22T09:03:16;15.90;99.90
11700;DHT22;5906;51.660;6.674;2022-10-22T09:05:58;16.00;99.90
11700;DHT22;5906;51.660;6.674;2022-10-22T09:08:27;16.10;99.90
11700;DHT22;5906;51.660;6.674;2022-10-22T09:11:01;16.20;99.90
11700;DHT22;5906;51.660;6.674;2022-10-22T09:13:29;16.30;99.90
11700;DHT22;5906;51.660;6.674;2022-10-22T09:16:00;16.40;99.90
11700;DHT22;5906;51.660;6.674;2022-10-22T09:18:34;16.40;99.90
11700;DHT22;5906;51.660;6.674;2022-10-22T09:26:37;16.50;99.90
11700;DHT22;5906;51.660;6.674;2022-10-22T09:29:05;16.60;99.90
11700;DHT22;5906;51.660;6.674;2022-10-22T09:31:33;16.70;99.90
11700;DHT22;5906;51.660;6.674;2022-10-22T09:34:00;16.70;99.90
11700;DHT22;5906;51.660;6.674;2022-10-22T09:36:32;16.80;99.90
11700;DHT22;5906;51.660;6.674;2022-10-22T09:38:59;16.80;99.90
11700;DHT22;5906;51.660;6.674;2022-10-22T09:41:28;16.80;99.90
11700;DHT22;5906;51.660;6.674;2022-10-22T09:43:56;16.80;99.90
11700;DHT22;5906;51.660;6.674;2022-10-22T09:46:27;16.90;99.90
11700;DHT22;5906;51.660;6.674;2022-10-22T09:49:02;16.90;99.90
11700;DHT22;5906;51.660;6.674;2022-10-22T09:51:54;17.10;99.90
11700;DHT22;5906;51.660;6.674;2022-10-22T09:54:39;17.10;99.90
11700;DHT22;5906;51.660;6.674;2022-10-22T09:57:23;17.10;99.90
11700;DHT22;5906;51.660;6.674;2022-10-22T09:59:51;17.20;99.90
11700;DHT22;5906;51.660;6.674;2022-10-22T10:02:25;17.20;99.90
11700;DHT22;5906;51.660;6.674;2022-10-22T10:05:05;17.20;99.90
11700;DHT22;5906;51.660;6.674;2022-10-22T10:07:34;17.20;99.90
11700;DHT22;5906;51.660;6.674;2022-10-22T10:10:02;17.20;99.90
11700;DHT22;5906;51.660;6.674;2022-10-22T10:12:50;17.20;99.90
11700;DHT22;5906;51.660;6.674;2022-10-22T10:15:38;17.10;99.90
11700;DHT22;5906;51.660;6.674;2022-10-22T10:18:13;17.10;99.90
11700;DHT22;5906;51.660;6.674;2022-10-22T10:20:52;17.10;99.90
11700;DHT22;5906;51.660;6.674;2022-10-22T10:24:09;17.10;99.90
11700;DHT22;5906;51.660;6.674;2022-10-22T10:37:29;17.60;99.90
11700;DHT22;5906;51.660;6.674;2022-10-22T10:43:08;17.80;99.90
11700;DHT22;5906;51.660;6.674;2022-10-22T10:49:00;17.60;99.90
11700;DHT22;5906;51.660;6.674;2022-10-22T10:54:43;17.40;99.90
11700;DHT22;5906;51.660;6.674;2022-10-22T11:00:13;17.50;99.90
11700;DHT22;5906;51.660;6.674;2022-10-22T11:08:29;17.70;99.90
11700;DHT22;5906;51.660;6.674;2022-10-22T11:13:37;17.70;99.90
11700;DHT22;5906;51.660;6.674;2022-10-22T11:19:10;17.60;99.90
11700;DHT22;5906;51.660;6.674;2022-10-22T11:27:36;17.50;99.90
11700;DHT22;5906;51.660;6.674;2022-10-22T11:30:13;17.70;99.90
11700;DHT22;5906;51.660;6.674;2022-10-22T11:32:42;17.70;99.90
11700;DHT22;5906;51.660;6.674;2022-10-22T11:35:17;17.80;99.90
11700;DHT22;5906;51.660;6.674;2022-10-22T11:37:53;17.80;99.90
11700;DHT22;5906;51.660;6.674;2022-10-22T11:40:36;17.90;99.90
11700;DHT22;5906;51.660;6.674;2022-10-22T11:43:11;17.90;99.90
11700;DHT22;5906;51.660;6.674;2022-10-22T11:46:07;17.90;99.90
11700;DHT22;5906;51.660;6.674;2022-10-22T11:48:36;17.80;99.90
11700;DHT22;5906;51.660;6.674;2022-10-22T11:51:14;17.70;99.90
11700;DHT22;5906;51.660;6.674;2022-10-22T11:53:55;17.80;99.90
11700;DHT22;5906;51.660;6.674;2022-10-22T11:56:36;17.80;99.90
11700;DHT22;5906;51.660;6.674;2022-10-22T11:59:37;17.70;99.90
11700;DHT22;5906;51.660;6.674;2022-10-22T12:01:54;17.60;99.90
11700;DHT22;5906;51.660;6.674;2022-10-22T12:04:21;17.60;99.90
11700;DHT22;5906;51.660;6.674;2022-10-22T12:07:00;17.60;99.90
11700;DHT22;5906;51.660;6.674;2022-10-22T12:09:29;17.40;99.90
11700;DHT22;5906;51.660;6.674;2022-10-22T12:12:03;17.30;99.90
11700;DHT22;5906;51.660;6.674;2022-10-22T12:14:52;17.10;99.90
11700;DHT22;5906;51.660;6.674;2022-10-22T12:17:20;17.00;99.90
11700;DHT22;5906;51.660;6.674;2022-10-22T12:20:11;17.00;99.90
11700;DHT22;5906;51.660;6.674;2022-10-22T12:22:38;17.00;99.90
11700;DHT22;5906;51.660;6.674;2022-10-22T12:25:20;17.00;99.90
11700;DHT22;5906;51.660;6.674;2022-10-22T12:27:56;17.20;99.90
11700;DHT22;5906;51.660;6.674;2022-10-22T12:30:31;17.40;99.90
11700;DHT22;5906;51.660;6.674;2022-10-22T12:33:03;17.50;99.90
11700;DHT22;5906;51.660;6.674;2022-10-22T12:35:32;17.70;99.90
11700;DHT22;5906;51.660;6.674;2022-10-22T12:38:04;18.00;99.90
11700;DHT22;5906;51.660;6.674;2022-10-22T12:40:34;18.10;99.90
11700;DHT22;5906;51.660;6.674;2022-10-22T12:43:09;18.30;99.90
11700;DHT22;5906;51.660;6.674;2022-10-22T12:45:37;18.40;99.90
11700;DHT22;5906;51.660;6.674;2022-10-22T12:48:12;18.40;99.90
11700;DHT22;5906;51.660;6.674;2022-10-22T12:50:42;18.50;99.90
11700;DHT22;5906;51.660;6.674;2022-10-22T12:53:20;18.40;99.90
11700;DHT22;5906;51.660;6.674;2022-10-22T12:55:50;18.50;99.90
11700;DHT22;5906;51.660;6.674;2022-10-22T12:58:20;18.50;99.90
11700;DHT22;5906;51.660;6.674;2022-10-22T13:00:47;18.60;99.90
11700;DHT22;5906;51.660;6.674;2022-10-22T13:03:31;18.70;99.90
11700;DHT22;5906;51.660;6.674;2022-10-22T13:06:34;18.60;99.90
11700;DHT22;5906;51.660;6.674;2022-10-22T13:09:16;18.60;99.90
11700;DHT22;5906;51.660;6.674;2022-10-22T13:12:02;18.50;99.90
11700;DHT22;5906;51.660;6.674;2022-10-22T13:14:33;18.60;99.90
11700;DHT22;5906;51.660;6.674;2022-10-22T13:22:29;18.30;99.90
11700;DHT22;5906;51.660;6.674;2022-10-22T13:25:20;18.40;99.90
11700;DHT22;5906;51.660;6.674;2022-10-22T13:27:56;18.40;99.90
11700;DHT22;5906;51.660;6.674;2022-10-22T13:30:33;18.40;99.90
11700;DHT22;5906;51.660;6.674;2022-10-22T13:33:03;18.40;99.90
11700;DHT22;5906;51.660;6.674;2022-10-22T13:35:33;18.30;99.90
11700;DHT22;5906;51.660;6.674;2022-10-22T13:38:19;18.20;99.90
11700;DHT22;5906;51.660;6.674;2022-10-22T13:40:46;18.10;99.90
11700;DHT22;5906;51.660;6.674;2022-10-22T13:43:14;18.20;99.90
11700;DHT22;5906;51.660;6.674;2022-10-22T13:45:41;18.20;99.90
11700;DHT22;5906;51.660;6.674;2022-10-22T13:48:15;18.20;99.90
11700;DHT22;5906;51.660;6.674;2022-10-22T13:50:42;18.10;99.90
11700;DHT22;5906;51.660;6.674;2022-10-22T13:53:15;18.20;99.90
11700;DHT22;5906;51.660;6.674;2022-10-22T13:55:44;18.30;99.90
11700;DHT22;5906;51.660;6.674;2022-10-22T13:58:13;18.30;99.90
11700;DHT22;5906;51.660;6.674;2022-10-22T14:00:45;18.30;99.90
11700;DHT22;5906;51.660;6.674;2022-10-22T14:03:15;18.30;99.90
11700;DHT22;5906;51.660;6.674;2022-10-22T14:05:42;18.40;99.90
11700;DHT22;5906;51.660;6.674;2022-10-22T14:08:13;18.40;99.90
11700;DHT22;5906;51.660;6.674;2022-10-22T14:10:40;18.40;99.90
11700;DHT22;5906;51.660;6.674;2022-10-22T14:13:09;18.30;99.90
11700;DHT22;5906;51.660;6.674;2022-10-22T14:15:37;18.30;99.90
11700;DHT22;5906;51.660;6.674;2022-10-22T14:18:04;18.30;99.90
11700;DHT22;5906;51.660;6.674;2022-10-22T14:20:35;18.40;99.90
11700;DHT22;5906;51.660;6.674;2022-10-22T14:23:26;18.30;99.90
11700;DHT22;5906;51.660;6.674;2022-10-22T14:25:54;18.30;99.90
11700;DHT22;5906;51.660;6.674;2022-10-22T14:28:20;18.40;99.90
11700;DHT22;5906;51.660;6.674;2022-10-22T14:30:47;18.40;99.90
11700;DHT22;5906;51.660;6.674;2022-10-22T14:33:18;18.40;99.90
11700;DHT22;5906;51.660;6.674;2022-10-22T14:35:47;18.20;99.90
11700;DHT22;5906;51.660;6.674;2022-10-22T14:38:15;18.10;99.90
11700;DHT22;5906;51.660;6.674;2022-10-22T14:40:43;17.90;99.90
11700;DHT22;5906;51.660;6.674;2022-10-22T14:43:25;17.90;99.90
11700;DHT22;5906;51.660;6.674;2022-10-22T14:45:52;17.90;99.90
11700;DHT22;5906;51.660;6.674;2022-10-22T14:48:19;17.90;99.90
11700;DHT22;5906;51.660;6.674;2022-10-22T14:50:46;17.90;99.90
11700;DHT22;5906;51.660;6.674;2022-10-22T14:53:14;17.90;99.90
11700;DHT22;5906;51.660;6.674;2022-10-22T14:55:43;18.10;99.90
11700;DHT22;5906;51.660;6.674;2022-10-22T14:58:10;18.00;99.90
11700;DHT22;5906;51.660;6.674;2022-10-22T15:00:40;18.10;99.90
11700;DHT22;5906;51.660;6.674;2022-10-22T15:03:07;18.00;99.90
11700;DHT22;5906;51.660;6.674;2022-10-22T15:05:34;17.90;99.90
11700;DHT22;5906;51.660;6.674;2022-10-22T15:08:01;17.80;99.90
11700;DHT22;5906;51.660;6.674;2022-10-22T15:10:28;17.60;99.90
11700;DHT22;5906;51.660;6.674;2022-10-22T15:12:54;17.60;99.90
11700;DHT22;5906;51.660;6.674;2022-10-22T15:15:21;17.60;99.90
11700;DHT22;5906;51.660;6.674;2022-10-22T15:17:50;17.50;99.90
11700;DHT22;5906;51.660;6.674;2022-10-22T15:20:16;17.50;99.90
11700;DHT22;5906;51.660;6.674;2022-10-22T15:22:43;17.50;99.90
11700;DHT22;5906;51.660;6.674;2022-10-22T15:25:12;17.60;99.90
11700;DHT22;5906;51.660;6.674;2022-10-22T15:27:39;17.50;99.90
11700;DHT22;5906;51.660;6.674;2022-10-22T15:30:06;17.40;99.90
11700;DHT22;5906;51.660;6.674;2022-10-22T15:32:33;17.40;99.90
11700;DHT22;5906;51.660;6.674;2022-10-22T15:35:00;17.40;99.90
11700;DHT22;5906;51.660;6.674;2022-10-22T15:37:27;17.40;99.90
11700;DHT22;5906;51.660;6.674;2022-10-22T15:39:53;17.40;99.90
11700;DHT22;5906;51.660;6.674;2022-10-22T15:42:20;17.40;99.90
11700;DHT22;5906;51.660;6.674;2022-10-22T15:44:48;17.30;99.90
11700;DHT22;5906;51.660;6.674;2022-10-22T15:47:22;17.20;99.90
11700;DHT22;5906;51.660;6.674;2022-10-22T15:49:50;17.10;99.90
11700;DHT22;5906;51.660;6.674;2022-10-22T15:52:17;17.10;99.90
11700;DHT22;5906;51.660;6.674;2022-10-22T15:54:43;17.00;99.90
11700;DHT22;5906;51.660;6.674;2022-10-22T15:57:11;16.90;99.90
11700;DHT22;5906;51.660;6.674;2022-10-22T15:59:37;16.90;99.90
11700;DHT22;5906;51.660;6.674;2022-10-22T16:02:04;16.90;99.90
11700;DHT22;5906;51.660;6.674;2022-10-22T16:04:32;16.80;99.90
11700;DHT22;5906;51.660;6.674;2022-10-22T16:06:59;16.80;99.90
11700;DHT22;5906;51.660;6.674;2022-10-22T16:09:26;16.70;99.90
11700;DHT22;5906;51.660;6.674;2022-10-22T16:11:54;16.70;99.90
11700;DHT22;5906;51.660;6.674;2022-10-22T16:14:21;16.60;99.90
11700;DHT22;5906;51.660;6.674;2022-10-22T16:16:53;16.50;99.90
11700;DHT22;5906;51.660;6.674;2022-10-22T16:19:22;16.40;99.90
11700;DHT22;5906;51.660;6.674;2022-10-22T16:21:51;16.30;99.90
11700;DHT22;5906;51.660;6.674;2022-10-22T16:24:19;16.20;99.90
11700;DHT22;5906;51.660;6.674;2022-10-22T16:26:47;16.10;99.90
11700;DHT22;5906;51.660;6.674;2022-10-22T16:29:14;16.00;99.90
11700;DHT22;5906;51.660;6.674;2022-10-22T16:31:41;15.90;99.90
11700;DHT22;5906;51.660;6.674;2022-10-22T16:34:09;15.80;99.90
11700;DHT22;5906;51.660;6.674;2022-10-22T16:36:35;15.60;99.90
11700;DHT22;5906;51.660;6.674;2022-10-22T16:39:05;15.40;99.90
11700;DHT22;5906;51.660;6.674;2022-10-22T16:41:32;15.20;99.90
11700;DHT22;5906;51.660;6.674;2022-10-22T16:44:04;15.10;99.90
11700;DHT22;5906;51.660;6.674;2022-10-22T16:46:32;15.10;99.90
11700;DHT22;5906;51.660;6.674;2022-10-22T16:48:59;15.00;99.90
11700;DHT22;5906;51.660;6.674;2022-10-22T16:51:27;14.90;99.90
11700;DHT22;5906;51.660;6.674;2022-10-22T16:53:55;14.80;99.90
11700;DHT22;5906;51.660;6.674;2022-10-22T16:56:23;14.70;99.90
11700;DHT22;5906;51.660;6.674;2022-10-22T16:58:53;14.60;99.90
11700;DHT22;5906;51.660;6.674;2022-10-22T17:01:21;14.50;99.90
11700;DHT22;5906;51.660;6.674;2022-10-22T17:03:48;14.40;99.90
11700;DHT22;5906;51.660;6.674;2022-10-22T17:06:15;14.30;99.90
11700;DHT22;5906;51.660;6.674;2022-10-22T17:08:42;14.30;99.90
11700;DHT22;5906;51.660;6.674;2022-10-22T17:11:11;14.20;99.90
11700;DHT22;5906;51.660;6.674;2022-10-22T17:13:41;14.10;99.90
11700;DHT22;5906;51.660;6.674;2022-10-22T17:16:10;14.10;99.90
11700;DHT22;5906;51.660;6.674;2022-10-22T17:18:39;14.00;99.90
11700;DHT22;5906;51.660;6.674;2022-10-22T17:21:08;13.90;99.90
11700;DHT22;5906;51.660;6.674;2022-10-22T17:23:35;13.80;99.90
11700;DHT22;5906;51.660;6.674;2022-10-22T17:26:05;13.80;99.90
11700;DHT22;5906;51.660;6.674;2022-10-22T17:28:32;13.60;99.90